Terminal Aerodrome Forecast
Issued by NWS Twin Cities, MN

Home | Current Version | Previous Version | Text Only | Print | Product List | Glossary Off
Versions: 1 2 3 4 5 6 7 8 9 10 11 12 13 14 15 16 17

000
FTUS43 KMPX 181120
TAFSTC
TAF
KSTC 181120Z 1812/1912 VRB02KT 6SM BR SCT100 BKN250
     FM181400 25004KT P6SM BKN100
     FM181900 27005KT P6SM BKN050 OVC100 PROB30 1821/1823 5SM -TSRA
      BKN050CB
     FM190300 VRB02KT P6SM FEW100
     FM190700 00000KT 4SM BR SKC
     FM191000 00000KT 2SM BR SCT002=

USA.gov is the U.S. government's official web portal to all federal, state and local government web resources and services.